Time;durP1;ratioP1;P1;durP2;ratioP2;P2;SDS_P1;SDS_P2;PMS_P1;PMS_P2;Temp;Humidity;BMP_temperature;BMP_pressure;BME280_temperature;BME280_humidity;BME280_pressure;Samples;Min_cycle;Max_cycle;Signal;HPM_P1;HPM_P2
2022/03/13 00:00:57;;;;;;;70.57;25.30;;;;;;;21.09;9.31;99189.81;5086669;28;20024;-76
2022/03/13 00:03:26;;;;;;;68.22;24.48;;;;;;;21.09;9.07;99198.19;5089189;28;20043;-77
2022/03/13 00:05:52;;;;;;;53.67;20.02;;;;;;;20.89;9.15;99200.38;5088678;28;20036;-76
2022/03/13 00:08:27;;;;;;;66.70;22.23;;;;;;;20.91;9.23;99203.56;5089916;28;20105;-77
2022/03/13 00:11:17;;;;;;;65.60;22.00;;;;;;;20.90;9.14;99202.00;5093950;28;20028;-76
2022/03/13 00:13:51;;;;;;;56.73;21.70;;;;;;;20.87;9.09;99199.16;5089437;28;20028;-76
2022/03/13 00:16:18;;;;;;;54.95;20.27;;;;;;;20.99;9.07;99199.66;5092421;28;20286;-76
2022/03/13 00:18:48;;;;;;;55.55;20.40;;;;;;;21.23;9.14;99189.91;5087162;28;20427;-77
2022/03/13 00:21:17;;;;;;;66.50;23.33;;;;;;;21.25;9.06;99199.50;5091798;28;20040;-76
2022/03/13 00:23:45;;;;;;;60.75;21.63;;;;;;;21.32;8.94;99193.16;5095297;28;20032;-77
2022/03/13 00:26:15;;;;;;;57.92;21.40;;;;;;;21.42;9.10;99200.03;5090659;28;20044;-76
2022/03/13 00:28:43;;;;;;;61.13;22.98;;;;;;;21.33;9.62;99192.00;5091166;28;20119;-77
2022/03/13 00:31:09;;;;;;;49.60;18.02;;;;;;;21.34;9.41;99194.38;5093200;28;20036;-76
2022/03/13 00:33:37;;;;;;;50.38;19.10;;;;;;;21.29;9.17;99200.34;5071953;28;20250;-77
2022/03/13 00:36:04;;;;;;;46.05;18.00;;;;;;;21.14;9.30;99195.03;5084588;28;20035;-77
2022/03/13 00:38:30;;;;;;;50.45;18.90;;;;;;;21.18;9.37;99184.69;5071261;28;20063;-77
2022/03/13 00:40:58;;;;;;;41.90;15.15;;;;;;;20.70;9.56;99186.63;5090235;28;20032;-76
2022/03/13 00:43:28;;;;;;;39.60;14.93;;;;;;;20.42;9.66;99187.16;5088261;28;20036;-77
2022/03/13 00:45:54;;;;;;;50.45;16.48;;;;;;;20.70;9.57;99181.06;5081290;28;20032;-77
2022/03/13 00:48:21;;;;;;;44.33;15.55;;;;;;;21.00;9.41;99180.94;5081107;28;20078;-77
2022/03/13 00:50:47;;;;;;;39.13;15.15;;;;;;;21.21;9.12;99179.13;5082671;28;20115;-77
2022/03/13 00:53:14;;;;;;;43.90;14.65;;;;;;;21.28;9.18;99184.75;5090803;28;20058;-76
2022/03/13 00:55:40;;;;;;;37.65;13.32;;;;;;;21.33;9.32;99184.38;5086189;28;20036;-77
2022/03/13 00:58:06;;;;;;;43.70;14.60;;;;;;;20.45;9.71;99186.41;5093163;28;20044;-77
2022/03/13 01:00:33;;;;;;;49.15;16.13;;;;;;;20.52;9.70;99188.47;5090014;28;20473;-77
2022/03/13 01:02:59;;;;;;;45.80;16.45;;;;;;;20.49;9.66;99180.88;5090133;28;20040;-77
2022/03/13 01:05:26;;;;;;;43.08;15.75;;;;;;;20.64;9.79;99177.84;5088236;28;20032;-77
2022/03/13 01:07:57;;;;;;;41.92;14.75;;;;;;;20.74;9.62;99184.69;5089751;28;20036;-77
2022/03/13 01:10:24;;;;;;;44.13;15.68;;;;;;;20.96;9.68;99180.09;5086034;28;20307;-77
2022/03/13 01:12:51;;;;;;;45.58;15.38;;;;;;;21.09;9.43;99182.25;5088751;28;20478;-76
2022/03/13 01:15:19;;;;;;;45.70;16.75;;;;;;;21.04;9.92;99177.00;5093542;28;20378;-77
2022/03/13 01:17:45;;;;;;;46.72;15.80;;;;;;;21.08;9.57;99179.81;5091794;28;20085;-77
2022/03/13 01:20:17;;;;;;;41.15;14.85;;;;;;;20.60;9.91;99176.19;5086344;28;20043;-77
2022/03/13 01:22:43;;;;;;;46.03;15.88;;;;;;;20.14;10.12;99172.09;5092041;28;20088;-77
2022/03/13 01:25:10;;;;;;;47.05;15.77;;;;;;;20.31;10.09;99171.50;5087135;28;20086;-77
2022/03/13 01:27:36;;;;;;;49.10;16.02;;;;;;;20.42;9.99;99162.06;5089177;28;20469;-77
2022/03/13 01:30:03;;;;;;;51.50;18.98;;;;;;;20.45;10.21;99160.50;5087541;28;20404;-77
2022/03/13 01:32:31;;;;;;;36.78;14.68;;;;;;;20.31;10.27;99163.94;5087166;28;20130;-77
2022/03/13 01:34:58;;;;;;;34.85;13.77;;;;;;;19.70;10.89;99164.38;5079593;28;20036;-77
2022/03/13 01:37:40;;;;;;;46.60;16.50;;;;;;;19.21;11.34;99158.91;5087837;28;20092;-77
2022/03/13 01:40:10;;;;;;;41.28;13.98;;;;;;;19.25;10.95;99156.97;5086607;28;20101;-77
2022/03/13 01:42:40;;;;;;;40.47;13.98;;;;;;;19.19;10.87;99149.31;5086450;28;20039;-77
2022/03/13 01:45:10;;;;;;;48.70;15.45;;;;;;;19.71;10.48;99145.69;5088881;28;20040;-77
2022/03/13 01:47:36;;;;;;;41.15;14.52;;;;;;;19.80;10.49;99143.41;5086755;28;20405;-76
2022/03/13 01:50:05;;;;;;;48.00;16.88;;;;;;;19.96;10.38;99139.22;5087997;28;20040;-76
2022/03/13 01:52:32;;;;;;;56.38;17.80;;;;;;;20.20;10.28;99134.31;5090305;28;20031;-77
2022/03/13 01:54:59;;;;;;;55.80;20.48;;;;;;;20.38;10.11;99132.53;5080793;28;20074;-77
2022/03/13 01:57:26;;;;;;;62.45;21.20;;;;;;;20.55;10.12;99129.91;5088983;28;20037;-76
2022/03/13 01:59:55;;;;;;;53.33;19.35;;;;;;;20.32;10.19;99136.88;5087882;28;20051;-77
2022/03/13 02:02:23;;;;;;;61.53;23.50;;;;;;;20.39;10.10;99128.56;5082187;28;20043;-76
2022/03/13 02:04:54;;;;;;;53.85;19.83;;;;;;;20.48;10.07;99132.66;5085446;28;20504;-77
2022/03/13 02:07:25;;;;;;;55.33;19.85;;;;;;;20.22;10.19;99127.19;5086140;28;20043;-76
2022/03/13 02:09:51;;;;;;;50.97;19.27;;;;;;;20.04;10.44;99119.81;5083440;28;20496;-76
2022/03/13 02:12:24;;;;;;;41.47;16.45;;;;;;;19.93;10.49;99122.47;5071542;28;20060;-76
2022/03/13 02:14:51;;;;;;;51.35;17.23;;;;;;;19.88;10.67;99123.59;5083959;28;20383;-76
2022/03/13 02:17:35;;;;;;;45.00;18.20;;;;;;;20.00;10.24;99126.13;5094240;28;20170;-77
2022/03/13 02:20:02;;;;;;;49.53;19.00;;;;;;;20.04;10.39;99117.81;5090908;28;20024;-76
2022/03/13 02:22:29;;;;;;;60.67;21.75;;;;;;;20.08;10.44;99118.66;5092820;28;20070;-76
2022/03/13 02:24:55;;;;;;;59.35;22.58;;;;;;;19.94;10.50;99118.50;5094335;28;20020;-78
2022/03/13 02:27:27;;;;;;;59.97;21.20;;;;;;;20.00;10.40;99126.13;5091235;28;20093;-76
2022/03/13 02:29:54;;;;;;;61.20;21.95;;;;;;;19.77;10.71;99114.31;5092608;28;20046;-76
2022/03/13 02:32:20;;;;;;;63.67;21.60;;;;;;;19.72;10.62;99117.44;5091654;28;20089;-77
2022/03/13 02:34:48;;;;;;;54.17;19.08;;;;;;;19.95;10.26;99115.31;5093926;28;20044;-76
2022/03/13 02:37:34;;;;;;;54.33;19.70;;;;;;;19.71;10.32;99113.06;5093929;28;20032;-76
2022/03/13 02:40:01;;;;;;;54.00;19.08;;;;;;;19.92;10.40;99109.72;5091715;28;20032;-76
2022/03/13 02:42:27;;;;;;;46.15;18.17;;;;;;;20.04;10.15;99119.81;5090583;28;20044;-77
2022/03/13 02:44:53;;;;;;;67.63;23.05;;;;;;;20.07;10.36;99119.81;5091059;28;20020;-76
2022/03/13 02:47:19;;;;;;;63.78;20.80;;;;;;;20.09;10.26;99113.88;5092763;28;21323;-76
2022/03/13 02:49:45;;;;;;;61.40;21.20;;;;;;;20.03;10.29;99107.84;5088592;28;20032;-76
2022/03/13 02:52:11;;;;;;;69.90;25.92;;;;;;;19.95;10.47;99112.53;5076365;28;20032;-76
2022/03/13 02:54:38;;;;;;;70.70;27.02;;;;;;;20.01;10.44;99110.22;5072259;28;20040;-76
2022/03/13 02:57:04;;;;;;;86.35;30.45;;;;;;;19.62;10.62;99107.00;5076532;28;20031;-76
2022/03/13 02:59:30;;;;;;;68.00;25.35;;;;;;;19.78;10.66;99115.13;5083282;28;20040;-76
2022/03/13 03:01:58;;;;;;;60.53;21.95;;;;;;;19.67;10.74;99111.41;5089646;28;20135;-76
2022/03/13 03:04:24;;;;;;;55.15;19.20;;;;;;;19.35;10.92;99116.53;5097199;28;20046;-76
2022/03/13 03:07:00;;;;;;;52.40;17.77;;;;;;;19.31;11.01;99115.69;5092627;28;20036;-76
2022/03/13 03:09:29;;;;;;;50.03;18.13;;;;;;;19.61;10.80;99115.69;5077244;28;20066;-76
2022/03/13 03:11:57;;;;;;;43.92;16.08;;;;;;;18.91;11.34;99123.84;5092616;28;20512;-76
2022/03/13 03:14:23;;;;;;;48.72;16.65;;;;;;;18.72;11.30;99124.72;5088242;28;20493;-76
2022/03/13 03:16:50;;;;;;;55.28;18.73;;;;;;;19.00;11.18;99121.59;5094186;28;20036;-76
2022/03/13 03:19:16;;;;;;;52.15;19.77;;;;;;;19.12;11.05;99122.19;5090551;28;20032;-76
2022/03/13 03:21:42;;;;;;;50.00;18.10;;;;;;;19.39;11.08;99111.06;5083691;28;20051;-76
2022/03/13 03:24:17;;;;;;;44.17;15.57;;;;;;;19.72;10.65;99116.66;5090664;28;20012;-76
2022/03/13 03:26:43;;;;;;;45.05;16.27;;;;;;;19.83;10.54;99112.00;5090828;28;20048;-76
2022/03/13 03:29:10;;;;;;;46.53;16.52;;;;;;;19.29;10.90;99118.06;5093578;28;20108;-77
2022/03/13 03:31:45;;;;;;;45.28;15.40;;;;;;;19.24;10.66;99112.81;5094517;28;20031;-76
2022/03/13 03:34:18;;;;;;;51.40;17.85;;;;;;;19.38;10.61;99113.03;5085426;28;20027;-77
2022/03/13 03:36:48;;;;;;;43.63;15.50;;;;;;;19.55;10.51;99106.09;5093686;28;20024;-76
2022/03/13 03:39:16;;;;;;;32.00;11.38;;;;;;;19.44;10.68;99113.50;5088493;28;20492;-77
2022/03/13 03:41:44;;;;;;;58.92;17.50;;;;;;;19.53;10.43;99112.06;5092529;28;20039;-76
2022/03/13 03:44:11;;;;;;;46.45;16.55;;;;;;;19.69;10.42;99106.25;5092016;28;20039;-76
2022/03/13 03:46:38;;;;;;;42.75;14.20;;;;;;;19.37;10.78;99122.56;5091543;28;20028;-76
2022/03/13 03:49:04;;;;;;;48.88;16.13;;;;;;;19.44;10.71;99110.72;5091321;28;20107;-76
2022/03/13 03:51:30;;;;;;;45.95;15.07;;;;;;;19.61;10.58;99113.72;5089131;28;20040;-76
2022/03/13 03:53:56;;;;;;;36.92;13.52;;;;;;;19.67;10.30;99115.00;5092096;28;20024;-76
2022/03/13 03:56:23;;;;;;;34.25;12.82;;;;;;;19.83;10.37;99114.78;5094495;28;20370;-76
2022/03/13 03:58:49;;;;;;;39.08;13.75;;;;;;;19.75;10.34;99113.91;5082288;28;20393;-76
2022/03/13 04:01:16;;;;;;;45.67;14.63;;;;;;;19.72;10.43;99109.06;5089482;28;20047;-76
2022/03/13 04:03:42;;;;;;;42.50;13.68;;;;;;;19.58;10.53;99108.91;5098244;28;20432;-76
2022/03/13 04:06:09;;;;;;;42.20;13.98;;;;;;;19.83;10.70;99107.25;5091090;28;20028;-76
2022/03/13 04:08:35;;;;;;;42.28;14.82;;;;;;;19.90;10.36;99107.31;5086079;28;20027;-76
2022/03/13 04:11:02;;;;;;;36.85;12.40;;;;;;;19.33;10.70;99102.19;5093018;28;20115;-76
2022/03/13 04:13:28;;;;;;;45.22;15.10;;;;;;;19.53;10.72;99102.88;5090185;28;20017;-76
2022/03/13 04:15:55;;;;;;;41.40;14.23;;;;;;;19.59;10.61;99104.94;5090313;28;20070;-76
2022/03/13 04:18:22;;;;;;;43.88;15.25;;;;;;;19.77;10.59;99100.38;5085117;28;20040;-76
2022/03/13 04:20:48;;;;;;;40.35;13.32;;;;;;;19.33;10.87;99100.22;5090607;28;20028;-76
2022/03/13 04:23:15;;;;;;;48.22;15.75;;;;;;;19.36;10.82;99111.81;5091606;28;20060;-76
2022/03/13 04:25:41;;;;;;;41.50;16.02;;;;;;;19.33;10.93;99103.00;5088955;28;20048;-76
2022/03/13 04:28:10;;;;;;;41.38;15.95;;;;;;;19.40;11.21;99102.31;5090634;28;20034;-76
2022/03/13 04:30:39;;;;;;;41.25;15.40;;;;;;;19.20;11.37;99103.59;5085444;28;20020;-76
2022/03/13 04:33:06;;;;;;;33.95;13.05;;;;;;;18.78;11.23;99101.00;5089880;28;20039;-75
2022/03/13 04:35:32;;;;;;;38.10;12.18;;;;;;;19.04;11.11;99105.75;5085476;28;20493;-75
2022/03/13 04:37:58;;;;;;;31.13;11.15;;;;;;;19.22;10.81;99104.03;5098839;28;20024;-76
2022/03/13 04:40:25;;;;;;;38.38;14.05;;;;;;;19.48;10.67;99103.22;5088143;28;20040;-76
2022/03/13 04:42:51;;;;;;;32.88;12.32;;;;;;;19.66;10.64;99104.22;5069855;28;20046;-76
2022/03/13 04:45:18;;;;;;;36.42;13.52;;;;;;;19.78;10.55;99101.19;5092157;28;20077;-76
2022/03/13 04:47:45;;;;;;;35.97;13.45;;;;;;;19.48;10.87;99108.78;5088967;28;20032;-76
2022/03/13 04:50:11;;;;;;;39.60;14.13;;;;;;;19.35;11.00;99116.53;5092742;28;20032;-76
2022/03/13 04:52:37;;;;;;;36.05;11.85;;;;;;;19.39;11.32;99111.06;5088874;28;20036;-76
2022/03/13 04:55:05;;;;;;;35.25;12.77;;;;;;;19.28;11.23;99110.88;5089714;28;20063;-76
2022/03/13 04:57:31;;;;;;;28.45;11.27;;;;;;;18.91;11.31;99110.72;5087935;28;20025;-76
2022/03/13 04:59:57;;;;;;;37.67;12.73;;;;;;;18.85;11.17;99120.59;5089374;28;20040;-76
2022/03/13 05:02:23;;;;;;;34.15;10.93;;;;;;;19.26;10.91;99113.22;5088217;28;20034;-76
2022/03/13 05:04:49;;;;;;;34.63;10.18;;;;;;;19.52;10.67;99115.19;5094139;28;20166;-76
2022/03/13 05:07:20;;;;;;;25.00;9.38;;;;;;;19.12;10.89;99107.44;5088801;28;20032;-76
2022/03/13 05:09:47;;;;;;;27.98;9.85;;;;;;;19.28;10.81;99089.41;5086880;28;20070;-76
2022/03/13 05:12:14;;;;;;;55.30;16.45;;;;;;;19.73;10.59;99098.75;5092008;28;20035;-76
2022/03/13 05:14:40;;;;;;;27.83;10.00;;;;;;;19.55;10.86;99097.72;5089237;28;20027;-77
2022/03/13 05:17:06;;;;;;;35.55;10.75;;;;;;;19.80;10.73;99091.28;5094201;28;20115;-76
2022/03/13 05:19:32;;;;;;;36.47;12.48;;;;;;;20.07;10.62;99088.38;5090186;28;20523;-76
2022/03/13 05:21:58;;;;;;;36.83;12.68;;;;;;;18.62;11.50;99117.03;5086616;28;20028;-76
2022/03/13 05:24:24;;;;;;;27.13;11.15;;;;;;;18.79;11.69;99116.50;5089133;28;20039;-76
2022/03/13 05:26:51;;;;;;;30.60;11.25;;;;;;;19.12;11.41;99124.16;5089072;28;20042;-76
2022/03/13 05:29:17;;;;;;;28.30;10.25;;;;;;;19.25;11.19;99117.22;5071966;28;20142;-76
2022/03/13 05:31:43;;;;;;;28.70;10.00;;;;;;;19.71;10.99;99115.03;5093187;28;20020;-76
2022/03/13 05:34:10;;;;;;;32.20;11.10;;;;;;;19.82;10.71;99124.31;5087314;28;20035;-76
2022/03/13 05:36:37;;;;;;;31.92;10.75;;;;;;;19.96;10.92;99128.09;5088435;28;20158;-76
2022/03/13 05:39:03;;;;;;;25.20;10.05;;;;;;;20.22;10.62;99131.97;5094425;28;20102;-76
2022/03/13 05:41:30;;;;;;;26.10;9.60;;;;;;;20.21;10.57;99141.50;5087571;28;20033;-76
2022/03/13 05:43:57;;;;;;;26.35;10.27;;;;;;;20.40;10.50;99130.97;5094220;28;20456;-76
2022/03/13 05:46:23;;;;;;;27.35;11.63;;;;;;;20.70;10.60;99125.25;5092049;28;20377;-76
2022/03/13 05:48:49;;;;;;;24.58;9.20;;;;;;;20.94;10.69;99126.63;5080880;28;20048;-76
2022/03/13 05:51:15;;;;;;;24.13;9.63;;;;;;;20.86;10.91;99125.78;5088934;28;20119;-76
2022/03/13 05:53:41;;;;;;;25.95;9.52;;;;;;;20.98;10.74;99128.25;5092097;28;20393;-76
2022/03/13 05:56:07;;;;;;;28.73;11.00;;;;;;;20.46;11.37;99128.63;5096752;28;20031;-76
2022/03/13 05:58:33;;;;;;;23.63;8.90;;;;;;;20.26;11.35;99130.00;5095208;28;20031;-76
2022/03/13 06:01:06;;;;;;;27.10;9.27;;;;;;;20.71;10.73;99128.84;5087905;28;20028;-76
2022/03/13 06:03:33;;;;;;;24.70;9.50;;;;;;;21.28;10.46;99139.28;5088270;28;20039;-76
2022/03/13 06:06:02;;;;;;;31.67;11.55;;;;;;;21.77;10.72;99130.34;5087764;28;20032;-76
2022/03/13 06:08:28;;;;;;;40.70;14.85;;;;;;;22.06;10.74;99129.28;5087066;28;20122;-76
2022/03/13 06:10:54;;;;;;;33.10;12.23;;;;;;;22.29;10.24;99137.31;5088987;28;20032;-76
2022/03/13 06:13:22;;;;;;;37.95;13.55;;;;;;;22.71;10.16;99142.22;5087610;28;20032;-76
2022/03/13 06:15:49;;;;;;;42.72;17.42;;;;;;;22.93;10.23;99138.22;5089867;28;20024;-76
2022/03/13 06:18:15;;;;;;;39.63;15.30;;;;;;;23.09;10.37;99135.78;5085991;28;20062;-76
2022/03/13 06:20:41;;;;;;;54.70;17.42;;;;;;;23.25;10.77;99139.78;5085519;28;20028;-77
2022/03/13 06:23:13;;;;;;;71.20;28.48;;;;;;;22.67;11.71;99140.22;5082146;28;20047;-77
2022/03/13 06:25:41;;;;;;;42.55;16.20;;;;;;;22.18;12.20;99139.28;5086129;28;20067;-77
2022/03/13 06:28:07;;;;;;;45.10;17.52;;;;;;;21.82;12.41;99141.16;5088473;28;20558;-77
2022/03/13 06:30:34;;;;;;;48.65;19.77;;;;;;;21.64;12.67;99149.44;5088552;28;20036;-77
2022/03/13 06:33:00;;;;;;;55.47;21.67;;;;;;;21.76;12.98;99149.09;5091390;28;20028;-77
2022/03/13 06:35:26;;;;;;;55.20;23.20;;;;;;;21.90;12.89;99154.78;5086991;28;20028;-77
2022/03/13 06:37:54;;;;;;;53.50;22.38;;;;;;;22.37;12.17;99144.53;5093915;28;20032;-77
2022/03/13 06:40:22;;;;;;;53.30;21.58;;;;;;;22.86;12.11;99147.41;5089431;28;20496;-76
2022/03/13 06:42:50;;;;;;;61.85;24.02;;;;;;;22.20;12.55;99151.69;5071144;28;20442;-77
2022/03/13 06:45:16;;;;;;;53.17;22.48;;;;;;;21.67;13.25;99148.66;5086827;28;20024;-77
2022/03/13 06:47:44;;;;;;;41.65;17.20;;;;;;;21.34;11.70;99144.09;5071755;28;20378;-77
2022/03/13 06:50:13;;;;;;;36.33;15.50;;;;;;;21.18;12.19;99154.78;5087584;28;20082;-77
2022/03/13 06:52:39;;;;;;;38.95;15.50;;;;;;;21.26;11.71;99159.19;5088812;28;20048;-77
2022/03/13 06:55:06;;;;;;;37.13;14.80;;;;;;;21.30;11.83;99153.66;5088775;28;20036;-77
2022/03/13 06:57:32;;;;;;;34.83;14.20;;;;;;;21.60;11.67;99147.84;5069747;28;20038;-77
2022/03/13 06:59:59;;;;;;;31.63;12.95;;;;;;;21.72;11.10;99159.47;5087491;28;20033;-77
2022/03/13 07:02:25;;;;;;;28.13;11.98;;;;;;;21.97;11.51;99160.41;5088347;28;20397;-77
2022/03/13 07:04:52;;;;;;;25.73;12.70;;;;;;;21.74;11.48;99167.47;5092502;28;20461;-77
2022/03/13 07:07:18;;;;;;;30.63;12.15;;;;;;;21.91;11.51;99159.16;5095688;28;20478;-77
2022/03/13 07:09:44;;;;;;;30.60;13.05;;;;;;;22.08;11.25;99160.44;5092602;28;20036;-77
2022/03/13 07:12:11;;;;;;;24.63;11.05;;;;;;;22.15;11.19;99163.25;5089832;28;20016;-77
2022/03/13 07:14:45;;;;;;;31.10;12.75;;;;;;;22.28;11.33;99163.69;5089055;28;20518;-77
2022/03/13 07:17:11;;;;;;;26.10;10.70;;;;;;;22.81;10.85;99164.59;5091253;28;20118;-77
2022/03/13 07:19:37;;;;;;;32.00;12.95;;;;;;;22.80;11.08;99167.81;5090531;28;20528;-77
2022/03/13 07:22:04;;;;;;;27.33;10.80;;;;;;;22.84;10.79;99168.63;5091254;28;20035;-77
2022/03/13 07:24:30;;;;;;;28.92;12.07;;;;;;;22.02;11.50;99171.22;5090046;28;20047;-77
2022/03/13 07:26:56;;;;;;;20.95;10.07;;;;;;;22.25;11.66;99172.88;5092243;28;20036;-76
2022/03/13 07:29:22;;;;;;;34.20;13.57;;;;;;;21.09;11.54;99173.06;5069986;28;20032;-76
2022/03/13 07:31:48;;;;;;;25.27;11.50;;;;;;;20.53;12.06;99162.19;5097716;28;20024;-76
2022/03/13 07:34:14;;;;;;;21.58;9.40;;;;;;;20.87;12.45;99162.88;5087656;28;20085;-77
2022/03/13 07:36:41;;;;;;;23.00;9.25;;;;;;;21.12;12.56;99172.28;5089286;28;20770;-77
2022/03/13 07:39:07;;;;;;;26.70;11.55;;;;;;;19.57;12.63;99168.59;5092795;28;20028;-77
2022/03/13 07:41:33;;;;;;;27.17;11.68;;;;;;;18.90;13.49;99175.13;5084396;28;20036;-78
2022/03/13 07:44:00;;;;;;;27.00;12.15;;;;;;;19.59;13.31;99168.22;5088982;28;20058;-77
2022/03/13 07:46:26;;;;;;;22.55;10.77;;;;;;;20.52;12.58;99166.94;5088780;28;20497;-77
2022/03/13 07:48:52;;;;;;;23.77;10.63;;;;;;;20.54;12.06;99169.34;5070386;28;20035;-77
2022/03/13 07:51:19;;;;;;;23.50;9.50;;;;;;;21.49;11.66;99161.75;5088997;28;20039;-78
2022/03/13 07:53:46;;;;;;;22.20;9.23;;;;;;;22.48;11.36;99154.53;5068009;28;20035;-78
2022/03/13 07:56:12;;;;;;;20.45;8.82;;;;;;;23.50;11.28;99156.56;5090713;28;20020;-78
2022/03/13 07:58:38;;;;;;;25.67;9.73;;;;;;;24.24;10.60;99153.50;5083576;28;20522;-77
2022/03/13 08:01:04;;;;;;;21.77;9.63;;;;;;;24.43;10.08;99149.38;5083262;28;20700;-78
2022/03/13 08:03:32;;;;;;;18.25;8.82;;;;;;;24.39;10.09;99154.19;5089907;28;20039;-77
2022/03/13 08:05:58;;;;;;;17.38;8.30;;;;;;;24.08;9.86;99155.19;5092720;28;20028;-78
2022/03/13 08:08:24;;;;;;;27.80;13.15;;;;;;;22.00;11.11;99164.41;5090463;28;20435;-77
2022/03/13 08:10:51;;;;;;;26.95;11.65;;;;;;;20.36;12.31;99166.38;5089029;28;20028;-79
2022/03/13 08:13:17;;;;;;;20.58;10.02;;;;;;;19.90;12.11;99165.84;5090412;28;20036;-79
2022/03/13 08:15:43;;;;;;;23.08;10.40;;;;;;;20.24;12.24;99169.44;5088349;28;20057;-79
2022/03/13 08:18:10;;;;;;;19.15;8.00;;;;;;;22.17;11.24;99166.47;5088786;28;20066;-78
2022/03/13 08:20:37;;;;;;;17.02;7.45;;;;;;;23.41;10.28;99167.38;5089416;28;20077;-78
2022/03/13 08:23:03;;;;;;;15.60;7.53;;;;;;;23.78;10.17;99166.91;5087362;28;20494;-79
2022/03/13 08:25:29;;;;;;;19.38;7.82;;;;;;;24.58;9.41;99157.28;5086729;28;20044;-79
2022/03/13 08:27:56;;;;;;;18.27;8.80;;;;;;;24.96;9.64;99158.22;5089241;28;20077;-78
2022/03/13 08:30:22;;;;;;;17.73;8.50;;;;;;;24.96;9.34;99157.44;5086237;28;20132;-79
2022/03/13 08:32:49;;;;;;;14.15;7.13;;;;;;;24.99;8.94;99153.78;5087166;28;20426;-79
2022/03/13 08:35:15;;;;;;;15.65;7.28;;;;;;;25.28;9.41;99150.31;5090370;28;20425;-79
2022/03/13 08:37:41;;;;;;;15.07;7.35;;;;;;;23.37;9.49;99155.38;5074032;28;20093;-79
2022/03/13 08:40:09;;;;;;;13.02;6.68;;;;;;;23.85;10.03;99147.25;5097832;28;20101;-79
2022/03/13 08:42:35;;;;;;;19.23;7.72;;;;;;;23.92;10.42;99150.81;5089859;28;20050;-79
2022/03/13 08:45:01;;;;;;;12.93;6.35;;;;;;;24.48;9.95;99143.34;5094181;28;20055;-79
2022/03/13 08:47:27;;;;;;;12.93;6.90;;;;;;;24.80;9.70;99143.13;5086949;28;21966;-79
2022/03/13 08:49:54;;;;;;;12.93;6.07;;;;;;;25.46;9.75;99140.94;5087362;28;20036;-79
2022/03/13 08:52:20;;;;;;;13.10;5.80;;;;;;;25.84;9.06;99134.84;5086169;28;20028;-79
2022/03/13 08:54:47;;;;;;;12.32;5.78;;;;;;;26.26;9.08;99136.31;5086295;28;20168;-79
2022/03/13 08:57:13;;;;;;;12.05;5.35;;;;;;;26.33;8.85;99133.41;5082745;28;20433;-79
2022/03/13 08:59:41;;;;;;;10.55;6.00;;;;;;;24.64;8.62;99152.03;5081827;28;20494;-79
2022/03/13 09:02:09;;;;;;;14.93;6.45;;;;;;;23.11;10.19;99150.19;5082200;28;20232;-79
2022/03/13 09:04:35;;;;;;;10.45;5.05;;;;;;;23.84;10.02;99149.25;5087322;28;20089;-79
2022/03/13 09:07:01;;;;;;;13.02;6.57;;;;;;;24.25;9.25;99140.28;5086727;28;20477;-79
2022/03/13 09:09:28;;;;;;;14.52;5.43;;;;;;;25.47;9.09;99146.13;5087318;28;20351;-79
2022/03/13 09:11:54;;;;;;;13.88;5.78;;;;;;;25.69;8.62;99152.31;5087289;28;20028;-79
2022/03/13 09:14:21;;;;;;;11.00;5.13;;;;;;;26.28;8.90;99142.31;5087906;28;20119;-79
2022/03/13 09:16:47;;;;;;;10.55;4.97;;;;;;;26.95;8.15;99146.97;5071583;28;20024;-79
2022/03/13 09:19:14;;;;;;;9.75;4.97;;;;;;;26.95;8.14;99149.78;5090301;28;20028;-79
2022/03/13 09:21:40;;;;;;;10.40;5.40;;;;;;;27.14;7.77;99139.81;5080351;28;20111;-79
2022/03/13 09:24:08;;;;;;;11.02;4.53;;;;;;;27.45;8.10;99138.44;5085071;28;20033;-79
2022/03/13 09:26:41;;;;;;;9.82;4.40;;;;;;;26.64;7.74;99140.59;5083772;28;20060;-80
2022/03/13 09:29:07;;;;;;;7.13;3.85;;;;;;;26.63;7.60;99141.81;5089455;28;20036;-79
2022/03/13 09:31:34;;;;;;;7.88;3.83;;;;;;;24.20;8.81;99137.88;5090742;28;20036;-80
2022/03/13 09:34:00;;;;;;;8.23;3.53;;;;;;;25.49;8.13;99146.50;5090243;28;20032;-80
2022/03/13 09:36:26;;;;;;;5.90;3.50;;;;;;;25.63;7.38;99145.53;5092541;28;20081;-80
2022/03/13 09:38:53;;;;;;;8.57;4.38;;;;;;;24.72;7.74;99139.53;5093227;28;20110;-79
2022/03/13 09:41:19;;;;;;;7.63;3.53;;;;;;;24.83;8.14;99133.88;5077861;28;20484;-79
2022/03/13 09:43:45;;;;;;;5.55;3.40;;;;;;;25.19;7.90;99138.75;5092956;28;20070;-80
2022/03/13 09:46:12;;;;;;;6.57;3.22;;;;;;;25.57;7.16;99141.59;5092676;28;20028;-79
2022/03/13 09:48:38;;;;;;;4.45;2.63;;;;;;;25.26;7.56;99141.50;5089239;28;20036;-80
2022/03/13 09:51:06;;;;;;;6.68;3.13;;;;;;;24.08;7.51;99143.97;5079818;28;20024;-79
2022/03/13 09:53:33;;;;;;;5.07;3.05;;;;;;;24.95;7.51;99134.16;5083126;28;20043;-79
2022/03/13 09:56:01;;;;;;;5.72;3.30;;;;;;;23.46;7.54;99135.34;5085231;28;20114;-79
2022/03/13 09:58:29;;;;;;;5.72;3.17;;;;;;;21.65;8.29;99130.69;5079392;28;20038;-79
2022/03/13 10:00:56;;;;;;;5.28;2.90;;;;;;;20.63;9.19;99130.78;5085904;28;20048;-79
2022/03/13 10:03:22;;;;;;;6.10;2.30;;;;;;;23.28;7.70;99130.56;5079137;28;20389;-79
2022/03/13 10:05:49;;;;;;;3.60;1.90;;;;;;;24.53;6.96;99124.03;5086000;28;20093;-79
2022/03/13 10:08:16;;;;;;;5.65;2.72;;;;;;;24.81;6.69;99120.22;5069472;28;20122;-79
2022/03/13 10:10:48;;;;;;;6.85;2.90;;;;;;;25.68;6.63;99116.94;5084215;28;20378;-79
2022/03/13 10:13:35;;;;;;;8.13;2.83;;;;;;;25.49;5.83;99120.38;5084244;28;20043;-79
2022/03/13 10:16:02;;;;;;;5.45;2.55;;;;;;;25.71;6.65;99116.13;5083783;28;20603;-78
2022/03/13 10:18:29;;;;;;;6.97;3.42;;;;;;;25.92;7.17;99113.03;5077107;28;20043;-79
2022/03/13 10:20:56;;;;;;;7.05;3.03;;;;;;;25.87;6.40;99102.25;5083718;28;20059;-79
2022/03/13 10:23:23;;;;;;;10.05;4.13;;;;;;;23.70;8.16;99103.63;5086683;28;20044;-79
2022/03/13 10:25:53;;;;;;;4.32;2.30;;;;;;;24.29;7.62;99105.34;5079044;28;20048;-79
2022/03/13 10:28:26;;;;;;;4.80;2.40;;;;;;;25.55;6.48;99105.47;5080942;28;20033;-79
2022/03/13 10:31:17;;;;;;;6.05;3.20;;;;;;;24.44;7.16;99097.63;5080852;28;20060;-79
2022/03/13 10:33:43;;;;;;;3.67;2.33;;;;;;;25.54;6.75;99094.63;5076030;28;20071;-79
2022/03/13 10:36:10;;;;;;;6.35;2.03;;;;;;;26.23;6.51;99094.97;5078926;28;20032;-79
2022/03/13 10:38:38;;;;;;;5.65;3.13;;;;;;;26.03;7.03;99091.19;5081448;28;20443;-79
2022/03/13 10:41:08;;;;;;;7.47;2.90;;;;;;;25.78;6.80;99087.91;5081216;28;20016;-80
2022/03/13 10:43:37;;;;;;;4.78;2.45;;;;;;;25.48;6.64;99088.69;5085595;28;20028;-80
2022/03/13 10:46:04;;;;;;;4.20;2.33;;;;;;;25.04;6.54;99089.50;5082942;28;20370;-80
2022/03/13 10:48:33;;;;;;;7.90;3.20;;;;;;;24.99;6.20;99089.97;5083044;28;20067;-79
2022/03/13 10:51:17;;;;;;;6.22;2.63;;;;;;;26.34;5.94;99092.78;5088238;28;20077;-80
2022/03/13 10:53:44;;;;;;;5.05;2.30;;;;;;;25.70;6.04;99094.81;5082777;28;20060;-80
2022/03/13 10:56:14;;;;;;;5.18;2.28;;;;;;;26.55;6.21;99092.44;5082969;28;20103;-80
2022/03/13 10:58:48;;;;;;;3.70;2.08;;;;;;;26.71;5.87;99086.13;5084966;28;20086;-79
2022/03/13 11:01:22;;;;;;;3.03;1.63;;;;;;;26.94;5.19;99088.19;5067718;28;20445;-79
2022/03/13 11:04:06;;;;;;;3.50;1.98;;;;;;;27.78;4.57;99078.09;5087151;28;20565;-80
2022/03/13 11:06:39;;;;;;;3.63;2.25;;;;;;;23.27;7.02;99091.72;5084333;28;20750;-79
2022/03/13 11:09:05;;;;;;;5.88;2.92;;;;;;;22.96;7.47;99095.41;5071695;28;20037;-79
2022/03/13 11:11:32;;;;;;;5.07;2.88;;;;;;;21.50;7.71;99098.28;5081470;28;20102;-79
2022/03/13 11:14:01;;;;;;;5.47;2.92;;;;;;;22.98;6.85;99095.78;5085211;28;20032;-79
2022/03/13 11:16:32;;;;;;;4.68;2.50;;;;;;;25.10;4.99;99079.41;5085920;28;20020;-79
2022/03/13 11:19:08;;;;;;;6.70;2.95;;;;;;;25.36;5.68;99075.13;5088068;28;20493;-79
2022/03/13 11:21:35;;;;;;;5.38;2.15;;;;;;;25.90;5.89;99078.91;5083553;28;20389;-80
2022/03/13 11:24:01;;;;;;;3.92;1.88;;;;;;;26.65;4.65;99074.56;5083273;28;20084;-80
2022/03/13 11:26:29;;;;;;;12.25;6.35;;;;;;;24.87;5.29;99082.06;5084991;28;20127;-79